Time;durP1;ratioP1;P1;durP2;ratioP2;P2;SDS_P1;SDS_P2;PMS_P1;PMS_P2;Temp;Humidity;BMP_temperature;BMP_pressure;BME280_temperature;BME280_humidity;BME280_pressure;Samples;Min_cycle;Max_cycle;Signal;HPM_P1;HPM_P2
2022/04/06 00:02:20;;;;;;;13.07;11.77;;;27.90;86.40;;;;;;5126704;28;20038;-53
2022/04/06 00:04:48;;;;;;;13.05;11.57;;;28.00;86.50;;;;;;5126671;28;20034;-56
2022/04/06 00:07:15;;;;;;;13.73;12.40;;;27.90;86.60;;;;;;5126752;28;20051;-53
2022/04/06 00:09:42;;;;;;;13.73;12.43;;;27.90;86.80;;;;;;5126411;28;20185;-54
2022/04/06 00:12:09;;;;;;;14.35;12.85;;;27.90;87.50;;;;;;5126690;28;20031;-53
2022/04/06 00:14:36;;;;;;;13.85;12.35;;;27.90;87.10;;;;;;5126622;28;20207;-48
2022/04/06 00:17:05;;;;;;;13.80;12.23;;;27.90;87.30;;;;;;5126536;28;20090;-49
2022/04/06 00:19:35;;;;;;;13.80;12.45;;;27.90;87.50;;;;;;5126381;28;20037;-53
2022/04/06 00:22:03;;;;;;;14.15;12.65;;;27.90;87.50;;;;;;5126424;28;20027;-53
2022/04/06 00:24:30;;;;;;;13.98;12.57;;;27.90;87.50;;;;;;5126157;28;20035;-50
2022/04/06 00:26:56;;;;;;;14.55;12.73;;;27.90;87.50;;;;;;5126362;28;20204;-52
2022/04/06 00:29:23;;;;;;;14.18;12.73;;;27.90;87.50;;;;;;5125438;28;20193;-52
2022/04/06 00:31:50;;;;;;;14.52;13.02;;;27.80;87.50;;;;;;5126479;28;20039;-50
2022/04/06 00:34:16;;;;;;;13.95;12.50;;;27.90;87.80;;;;;;5126219;28;20034;-53
2022/04/06 00:36:46;;;;;;;15.10;13.57;;;27.80;87.90;;;;;;5126685;28;20238;-49
2022/04/06 00:39:12;;;;;;;14.10;12.75;;;27.80;88.00;;;;;;5126345;28;20242;-53
2022/04/06 00:41:39;;;;;;;14.82;12.80;;;27.80;88.20;;;;;;5126076;28;20031;-52
2022/04/06 00:44:23;;;;;;;14.07;12.73;;;27.80;88.00;;;;;;5125833;28;20227;-55
2022/04/06 00:46:50;;;;;;;13.40;11.93;;;27.80;87.90;;;;;;5126067;28;20026;-54
2022/04/06 00:49:16;;;;;;;15.00;13.57;;;27.80;87.90;;;;;;5125998;28;20316;-54
2022/04/06 00:51:47;;;;;;;15.30;13.90;;;27.80;87.80;;;;;;5125648;28;20136;-54
2022/04/06 00:54:20;;;;;;;15.27;13.38;;;27.80;87.80;;;;;;5125738;28;20023;-48
2022/04/06 00:56:48;;;;;;;16.35;14.15;;;27.80;87.70;;;;;;5125661;28;20059;-50
2022/04/06 00:59:18;;;;;;;17.63;14.05;;;27.80;87.80;;;;;;5125627;28;20032;-50
2022/04/06 01:01:50;;;;;;;15.35;13.85;;;27.80;87.80;;;;;;5125767;28;20035;-52
2022/04/06 01:04:17;;;;;;;14.80;13.10;;;27.70;87.80;;;;;;5125203;28;20076;-53
2022/04/06 01:06:46;;;;;;;14.75;13.27;;;27.70;87.80;;;;;;5125614;28;20246;-47
2022/04/06 01:09:14;;;;;;;14.18;12.88;;;27.70;87.60;;;;;;5125374;28;20051;-54
2022/04/06 01:11:44;;;;;;;14.25;12.95;;;27.70;87.60;;;;;;5125278;28;20304;-47
2022/04/06 01:14:11;;;;;;;14.23;12.38;;;27.70;87.40;;;;;;5125348;28;20346;-50
2022/04/06 01:16:39;;;;;;;14.20;12.52;;;27.70;87.90;;;;;;5125361;28;20022;-51
2022/04/06 01:19:05;;;;;;;13.80;12.32;;;27.70;87.40;;;;;;5125153;28;20059;-51
2022/04/06 01:21:32;;;;;;;12.48;11.20;;;27.70;87.30;;;;;;5125127;28;20031;-53
2022/04/06 01:23:59;;;;;;;12.52;11.32;;;27.60;87.30;;;;;;5125247;28;20086;-54
2022/04/06 01:26:26;;;;;;;16.58;11.52;;;27.70;87.10;;;;;;5124873;28;20031;-48
2022/04/06 01:28:53;;;;;;;12.32;10.98;;;27.70;87.10;;;;;;5125189;28;20082;-52
2022/04/06 01:31:20;;;;;;;12.27;11.02;;;27.60;86.80;;;;;;5125017;28;20019;-48
2022/04/06 01:33:47;;;;;;;10.90;9.82;;;27.60;86.70;;;;;;5124745;28;20028;-52
2022/04/06 01:36:13;;;;;;;12.30;9.63;;;27.60;86.60;;;;;;5125191;28;20027;-54
2022/04/06 01:38:40;;;;;;;10.80;9.68;;;27.60;86.50;;;;;;5124835;28;20047;-54
2022/04/06 01:41:08;;;;;;;10.25;9.25;;;27.60;86.50;;;;;;5124704;28;20074;-54
2022/04/06 01:43:34;;;;;;;12.02;9.57;;;27.60;86.60;;;;;;5125251;28;20030;-51
2022/04/06 01:46:01;;;;;;;12.68;9.55;;;27.60;86.60;;;;;;5124942;28;20300;-51
2022/04/06 01:48:28;;;;;;;13.13;9.50;;;27.60;86.40;;;;;;5124982;28;20034;-50
2022/04/06 01:53:39;;;;;;;11.95;9.13;;;27.60;86.40;;;;;;5124554;28;20257;-53
2022/04/06 01:56:06;;;;;;;12.75;9.20;;;27.60;86.50;;;;;;5124616;28;20035;-48
2022/04/06 01:58:33;;;;;;;11.27;9.38;;;27.50;86.30;;;;;;5125070;28;20020;-55
2022/04/06 02:01:02;;;;;;;13.98;9.82;;;27.60;86.90;;;;;;5124546;28;20376;-51
2022/04/06 02:03:28;;;;;;;13.85;12.25;;;27.50;86.30;;;;;;5125268;28;20063;-54
2022/04/06 02:05:55;;;;;;;17.15;15.35;;;27.50;86.20;;;;;;5124735;28;20019;-52
2022/04/06 02:08:21;;;;;;;13.07;11.88;;;27.50;86.20;;;;;;5124926;28;20083;-53
2022/04/06 02:10:48;;;;;;;12.23;10.82;;;27.50;86.00;;;;;;5124363;28;20057;-53
2022/04/06 02:13:15;;;;;;;12.02;10.05;;;27.50;86.10;;;;;;5124440;28;20087;-59
2022/04/06 02:15:41;;;;;;;10.80;9.70;;;27.50;86.10;;;;;;5124446;28;20304;-54
2022/04/06 02:18:08;;;;;;;11.77;8.63;;;27.50;86.10;;;;;;5124723;28;20043;-57
2022/04/06 02:20:35;;;;;;;12.13;9.15;;;27.50;86.00;;;;;;5124300;28;20016;-51
2022/04/06 02:23:02;;;;;;;14.35;8.57;;;27.50;85.90;;;;;;5124694;28;20015;-53
2022/04/06 02:25:28;;;;;;;9.48;8.57;;;27.50;85.80;;;;;;5124364;28;20035;-50
2022/04/06 02:27:55;;;;;;;13.23;9.45;;;27.50;86.10;;;;;;5124738;28;20265;-52
2022/04/06 02:30:24;;;;;;;15.50;10.75;;;27.50;86.20;;;;;;5124343;28;20203;-47
2022/04/06 02:32:51;;;;;;;14.48;12.52;;;27.50;86.30;;;;;;5124549;28;20050;-53
2022/04/06 02:35:18;;;;;;;25.23;15.82;;;27.50;86.50;;;;;;5124094;28;20030;-47
2022/04/06 02:37:45;;;;;;;20.75;15.52;;;27.50;86.60;;;;;;5124504;28;20322;-49
2022/04/06 02:40:13;;;;;;;21.85;16.15;;;27.40;86.90;;;;;;5124025;28;20031;-48
2022/04/06 02:42:40;;;;;;;29.08;15.68;;;27.50;87.10;;;;;;5124314;28;20030;-48
2022/04/06 02:45:07;;;;;;;22.58;14.10;;;27.40;87.30;;;;;;5123995;28;20241;-51
2022/04/06 02:47:33;;;;;;;19.75;12.90;;;27.40;87.50;;;;;;5123929;28;20039;-50
2022/04/06 02:50:00;;;;;;;17.10;11.80;;;27.40;87.70;;;;;;5123939;28;20016;-54
2022/04/06 02:52:27;;;;;;;13.43;11.20;;;27.40;87.50;;;;;;5124672;28;20050;-48
2022/04/06 02:54:53;;;;;;;15.40;10.93;;;27.30;87.40;;;;;;5127909;28;20063;-50
2022/04/06 02:57:20;;;;;;;14.27;9.93;;;27.30;87.20;;;;;;5127991;28;20031;-54
2022/04/06 02:59:46;;;;;;;10.25;8.95;;;27.40;87.20;;;;;;5128159;28;20082;-54
2022/04/06 03:02:13;;;;;;;13.43;9.02;;;27.30;86.80;;;;;;5127985;28;20045;-54
2022/04/06 03:04:39;;;;;;;10.98;8.80;;;27.30;86.70;;;;;;5127860;28;20019;-53
2022/04/06 03:07:07;;;;;;;12.52;9.65;;;27.30;86.70;;;;;;5128060;28;20129;-47
2022/04/06 03:09:33;;;;;;;11.23;10.02;;;27.30;86.70;;;;;;5127535;28;20038;-51
2022/04/06 03:12:00;;;;;;;12.00;9.50;;;27.30;86.70;;;;;;5128075;28;20225;-52
2022/04/06 03:14:27;;;;;;;13.35;10.48;;;27.30;86.90;;;;;;5127787;28;20075;-49
2022/04/06 03:16:53;;;;;;;13.23;10.57;;;27.30;87.00;;;;;;5127607;28;20035;-56
2022/04/06 03:19:20;;;;;;;13.90;10.23;;;27.30;87.10;;;;;;5127681;28;20272;-53
2022/04/06 03:21:49;;;;;;;14.40;10.63;;;27.30;87.30;;;;;;5127719;28;20023;-55
2022/04/06 03:24:15;;;;;;;11.63;10.50;;;27.30;87.50;;;;;;5127358;28;20098;-53
2022/04/06 03:26:42;;;;;;;14.07;11.00;;;27.30;87.70;;;;;;5127523;28;20234;-53
2022/04/06 03:29:08;;;;;;;11.60;10.32;;;27.30;87.70;;;;;;5127416;28;20065;-52
2022/04/06 03:31:35;;;;;;;11.85;10.40;;;27.30;87.80;;;;;;5127076;28;20027;-54
2022/04/06 03:34:01;;;;;;;12.38;10.82;;;27.20;87.80;;;;;;5127372;28;20308;-49
2022/04/06 03:36:28;;;;;;;11.35;10.20;;;27.20;87.90;;;;;;5127221;28;20024;-50
2022/04/06 03:38:55;;;;;;;11.73;9.88;;;27.20;87.80;;;;;;5126982;28;20035;-49
2022/04/06 03:41:21;;;;;;;13.98;10.00;;;27.20;87.80;;;;;;5127150;28;20026;-54
2022/04/06 03:43:48;;;;;;;12.68;9.02;;;27.20;87.70;;;;;;5127149;28;20024;-52
2022/04/06 03:46:14;;;;;;;11.20;9.65;;;27.20;87.70;;;;;;5127018;28;20028;-51
2022/04/06 03:48:42;;;;;;;11.50;9.13;;;27.20;87.80;;;;;;5127056;28;20026;-53
2022/04/06 03:51:09;;;;;;;10.10;9.10;;;27.10;87.80;;;;;;5126810;28;20054;-59
2022/04/06 03:53:36;;;;;;;10.32;9.38;;;27.10;87.90;;;;;;5127373;28;20077;-56
2022/04/06 03:56:03;;;;;;;10.32;8.85;;;27.10;87.90;;;;;;5127039;28;20031;-56
2022/04/06 03:58:30;;;;;;;10.05;8.98;;;27.10;88.00;;;;;;5127475;28;20028;-52
2022/04/06 04:00:56;;;;;;;11.63;9.70;;;27.00;88.00;;;;;;5126782;28;20031;-53
2022/04/06 04:03:23;;;;;;;10.98;9.73;;;27.00;88.20;;;;;;5126950;28;20023;-51
2022/04/06 04:05:49;;;;;;;11.63;10.13;;;27.10;88.40;;;;;;5125705;28;20015;-55
2022/04/06 04:08:17;;;;;;;10.10;9.10;;;27.00;88.40;;;;;;5127085;28;20335;-53
2022/04/06 04:10:43;;;;;;;12.15;9.18;;;27.10;88.40;;;;;;5126786;28;20023;-51
2022/04/06 04:13:12;;;;;;;9.90;8.63;;;27.00;88.30;;;;;;5126971;28;20028;-49
2022/04/06 04:15:38;;;;;;;8.82;7.57;;;27.00;88.40;;;;;;5126436;28;20028;-57
2022/04/06 04:18:05;;;;;;;9.32;7.43;;;27.00;88.10;;;;;;5126810;28;20027;-52
2022/04/06 04:20:32;;;;;;;8.95;7.40;;;27.00;88.00;;;;;;5126542;28;20023;-47
2022/04/06 04:22:58;;;;;;;7.90;6.22;;;27.00;87.70;;;;;;5126808;28;20212;-49
2022/04/06 04:25:25;;;;;;;9.10;5.70;;;27.00;87.20;;;;;;5126767;28;20015;-50
2022/04/06 04:27:51;;;;;;;9.93;5.38;;;27.00;87.00;;;;;;5126875;28;20027;-53
2022/04/06 04:30:19;;;;;;;8.65;5.25;;;27.00;86.80;;;;;;5126202;28;20319;-50
2022/04/06 04:32:46;;;;;;;9.20;5.28;;;27.00;86.80;;;;;;5126330;28;20028;-51
2022/04/06 04:35:12;;;;;;;7.22;4.90;;;26.90;86.50;;;;;;5126188;28;20030;-49
2022/04/06 04:37:39;;;;;;;5.55;4.43;;;26.90;86.70;;;;;;5126221;28;20253;-56
2022/04/06 04:40:07;;;;;;;7.53;5.15;;;26.90;86.40;;;;;;5126224;28;20308;-51
2022/04/06 04:42:34;;;;;;;8.10;4.50;;;26.90;86.30;;;;;;5125889;28;20311;-51
2022/04/06 04:45:01;;;;;;;10.60;4.70;;;26.90;86.10;;;;;;5125731;28;20049;-51
2022/04/06 04:47:27;;;;;;;10.02;4.53;;;26.90;85.80;;;;;;5125741;28;20034;-55
2022/04/06 04:49:55;;;;;;;6.47;4.32;;;26.90;85.70;;;;;;5125700;28;20126;-47
2022/04/06 04:52:22;;;;;;;9.50;4.72;;;26.90;85.80;;;;;;5126000;28;20027;-51
2022/04/06 04:54:49;;;;;;;11.88;5.38;;;26.90;85.90;;;;;;5125553;28;20030;-48
2022/04/06 04:57:15;;;;;;;11.80;5.15;;;26.90;86.20;;;;;;5125983;28;20035;-53
2022/04/06 04:59:42;;;;;;;9.57;4.72;;;26.90;86.20;;;;;;5125773;28;20324;-53
2022/04/06 05:02:08;;;;;;;9.60;4.60;;;26.80;86.40;;;;;;5125486;28;20212;-52
2022/04/06 05:04:35;;;;;;;7.85;4.30;;;26.90;86.50;;;;;;5125554;28;20356;-55
2022/04/06 05:07:02;;;;;;;8.95;5.00;;;26.90;86.40;;;;;;5125575;28;20066;-49
2022/04/06 05:09:28;;;;;;;7.45;4.53;;;26.80;86.30;;;;;;5125397;28;20016;-48
2022/04/06 05:11:55;;;;;;;11.90;4.75;;;26.80;86.40;;;;;;5125841;28;20043;-52
2022/04/06 05:14:21;;;;;;;11.48;4.65;;;26.80;86.50;;;;;;5125429;28;20312;-53
2022/04/06 05:16:48;;;;;;;8.88;4.65;;;26.80;86.70;;;;;;5124960;28;20023;-52
2022/04/06 05:19:14;;;;;;;8.18;4.68;;;26.80;86.70;;;;;;5125321;28;20242;-54
2022/04/06 05:21:41;;;;;;;6.78;4.40;;;26.80;86.70;;;;;;5125411;28;20039;-54
2022/04/06 05:24:07;;;;;;;9.88;4.85;;;26.80;86.80;;;;;;5124956;28;20019;-50
2022/04/06 05:26:34;;;;;;;7.25;4.50;;;26.80;86.60;;;;;;5125299;28;20388;-54
2022/04/06 05:29:01;;;;;;;8.02;4.88;;;26.80;86.70;;;;;;5125057;28;20023;-52
2022/04/06 05:31:29;;;;;;;9.48;4.97;;;26.70;86.60;;;;;;5124961;28;20012;-50
2022/04/06 05:33:55;;;;;;;8.23;4.78;;;26.70;86.80;;;;;;5125064;28;20095;-58
2022/04/06 05:36:24;;;;;;;6.43;4.82;;;26.70;87.00;;;;;;5124997;28;20086;-49
2022/04/06 05:38:51;;;;;;;8.38;4.70;;;26.60;87.10;;;;;;5124788;28;20025;-50
2022/04/06 05:41:18;;;;;;;10.07;4.57;;;26.60;87.20;;;;;;5125166;28;20331;-50
2022/04/06 05:43:44;;;;;;;9.93;5.03;;;26.60;87.10;;;;;;5124855;28;20034;-55
2022/04/06 05:46:11;;;;;;;8.10;4.70;;;26.60;87.10;;;;;;5124802;28;20015;-50
2022/04/06 05:48:38;;;;;;;7.47;4.63;;;26.60;87.20;;;;;;5124850;28;20020;-50
2022/04/06 05:51:05;;;;;;;10.07;5.07;;;26.60;87.30;;;;;;5124505;28;20051;-49
2022/04/06 05:53:32;;;;;;;8.02;4.43;;;26.60;87.30;;;;;;5125137;28;20103;-50
2022/04/06 05:55:58;;;;;;;6.82;4.63;;;26.60;87.40;;;;;;5124697;28;20015;-51
2022/04/06 05:58:25;;;;;;;7.45;4.38;;;26.60;87.50;;;;;;5125117;28;20376;-50
2022/04/06 06:00:51;;;;;;;8.40;4.18;;;26.60;87.40;;;;;;5124668;28;20007;-52
2022/04/06 06:03:18;;;;;;;8.65;4.20;;;26.60;87.40;;;;;;5124757;28;20051;-50
2022/04/06 06:05:45;;;;;;;6.60;3.92;;;26.60;87.10;;;;;;5124578;28;20253;-51
2022/04/06 06:08:11;;;;;;;10.23;4.32;;;26.60;86.80;;;;;;5124895;28;20023;-54
2022/04/06 06:10:38;;;;;;;8.45;4.28;;;26.60;86.90;;;;;;5124478;28;20043;-50
2022/04/06 06:13:06;;;;;;;9.82;4.20;;;26.60;87.00;;;;;;5124349;28;20027;-54
2022/04/06 06:15:33;;;;;;;6.00;3.92;;;26.60;87.00;;;;;;5106602;28;20261;-52
2022/04/06 06:17:59;;;;;;;6.72;3.75;;;26.60;86.90;;;;;;5124704;28;20283;-50
2022/04/06 06:20:27;;;;;;;5.40;3.90;;;26.60;87.10;;;;;;5124391;28;20034;-52
2022/04/06 06:22:53;;;;;;;7.20;3.63;;;26.60;86.90;;;;;;5124653;28;20030;-57
2022/04/06 06:25:20;;;;;;;9.70;3.75;;;26.60;86.90;;;;;;5124248;28;20035;-52
2022/04/06 06:27:47;;;;;;;6.63;3.40;;;26.60;86.40;;;;;;5125809;28;20358;-52
2022/04/06 06:30:14;;;;;;;9.63;3.25;;;26.60;86.20;;;;;;5128929;28;20015;-48
2022/04/06 06:32:42;;;;;;;8.63;3.17;;;26.60;86.00;;;;;;5128826;28;20023;-49
2022/04/06 06:35:09;;;;;;;10.45;3.38;;;26.60;85.90;;;;;;5128462;28;20031;-54
2022/04/06 06:37:36;;;;;;;11.88;3.63;;;26.60;85.70;;;;;;5128632;28;20050;-51
2022/04/06 06:40:04;;;;;;;7.63;2.88;;;26.60;85.60;;;;;;5128484;28;20037;-49
2022/04/06 06:42:31;;;;;;;6.82;3.10;;;26.60;85.60;;;;;;5128550;28;20035;-51
2022/04/06 06:44:57;;;;;;;5.70;3.10;;;26.60;85.60;;;;;;5128330;28;20084;-56
2022/04/06 06:47:24;;;;;;;6.18;3.10;;;26.60;85.20;;;;;;5128386;28;20034;-48
2022/04/06 06:49:51;;;;;;;7.03;3.00;;;26.60;85.20;;;;;;5128302;28;20120;-50
2022/04/06 06:52:18;;;;;;;6.53;3.65;;;26.60;85.20;;;;;;5128216;28;20047;-51
2022/04/06 06:54:44;;;;;;;7.80;3.20;;;26.60;85.20;;;;;;5128125;28;20208;-52
2022/04/06 06:57:11;;;;;;;8.27;3.17;;;26.60;85.30;;;;;;5128382;28;20224;-49
2022/04/06 06:59:38;;;;;;;9.18;3.30;;;26.60;85.50;;;;;;5127995;28;20340;-49
2022/04/06 07:02:04;;;;;;;6.50;3.17;;;26.60;85.50;;;;;;5128088;28;20091;-49
2022/04/06 07:04:31;;;;;;;7.47;3.22;;;26.60;85.60;;;;;;5127762;28;20250;-50
2022/04/06 07:06:58;;;;;;;6.75;3.28;;;26.60;85.70;;;;;;5128029;28;20023;-51
2022/04/06 07:09:24;;;;;;;8.13;3.10;;;26.60;85.70;;;;;;5127706;28;20056;-49
2022/04/06 07:11:52;;;;;;;5.60;3.00;;;26.60;85.60;;;;;;5128056;28;20115;-55
2022/04/06 07:14:20;;;;;;;7.05;2.78;;;26.60;86.00;;;;;;5127741;28;20047;-53
2022/04/06 07:16:46;;;;;;;5.03;2.85;;;26.60;85.30;;;;;;5127751;28;20028;-48
2022/04/06 07:19:13;;;;;;;5.95;3.30;;;26.60;85.40;;;;;;5127778;28;20023;-55
2022/04/06 07:21:40;;;;;;;5.70;3.58;;;26.60;85.40;;;;;;5127580;28;20208;-48
2022/04/06 07:24:06;;;;;;;8.50;3.70;;;26.60;85.40;;;;;;5127540;28;20027;-51
2022/04/06 07:26:33;;;;;;;9.18;3.83;;;26.60;85.40;;;;;;5127598;28;20324;-51
2022/04/06 07:29:00;;;;;;;7.88;3.85;;;26.60;85.60;;;;;;5127613;28;20030;-51
2022/04/06 07:31:26;;;;;;;6.15;3.55;;;26.60;85.70;;;;;;5127689;28;20019;-52
2022/04/06 07:33:53;;;;;;;5.93;3.83;;;26.60;85.70;;;;;;5127353;28;20023;-49
2022/04/06 07:36:19;;;;;;;8.98;3.88;;;26.60;85.70;;;;;;5127323;28;20035;-55
2022/04/06 07:38:46;;;;;;;9.25;4.00;;;26.60;85.80;;;;;;5126980;28;20027;-49
2022/04/06 07:41:13;;;;;;;6.80;4.00;;;26.60;85.70;;;;;;5127363;28;20042;-54
2022/04/06 07:43:39;;;;;;;5.40;3.55;;;26.60;85.60;;;;;;5127176;28;20072;-50
2022/04/06 07:46:07;;;;;;;8.38;3.67;;;26.50;85.80;;;;;;5127284;28;20015;-50
2022/04/06 07:48:34;;;;;;;6.30;3.85;;;26.60;85.80;;;;;;5127410;28;20032;-52
2022/04/06 07:51:01;;;;;;;6.47;3.60;;;26.60;85.60;;;;;;5126954;28;20047;-49
2022/04/06 07:53:27;;;;;;;7.65;3.13;;;26.50;85.80;;;;;;5127509;28;20023;-50
2022/04/06 07:55:54;;;;;;;5.20;3.30;;;26.50;85.80;;;;;;5126922;28;20019;-53
2022/04/06 07:58:20;;;;;;;5.88;3.50;;;26.60;86.00;;;;;;5126896;28;20086;-53
2022/04/06 08:00:47;;;;;;;6.88;3.38;;;26.60;85.70;;;;;;5126994;28;20020;-54
2022/04/06 08:03:14;;;;;;;8.50;3.53;;;26.60;85.60;;;;;;5127068;28;20299;-53
2022/04/06 08:05:40;;;;;;;7.13;3.53;;;26.60;85.30;;;;;;5126749;28;20015;-53
2022/04/06 08:08:07;;;;;;;6.25;3.22;;;26.60;85.40;;;;;;5127399;28;20023;-52
2022/04/06 08:10:34;;;;;;;6.15;3.42;;;26.60;85.60;;;;;;5126523;28;20047;-51
2022/04/06 08:13:00;;;;;;;8.45;3.78;;;26.60;85.70;;;;;;5126930;28;20024;-52
2022/04/06 08:15:28;;;;;;;4.30;3.30;;;26.60;85.60;;;;;;5126693;28;20058;-55
2022/04/06 08:17:55;;;;;;;5.95;3.50;;;26.60;85.80;;;;;;5126707;28;20081;-51
2022/04/06 08:20:21;;;;;;;5.78;3.70;;;26.60;85.70;;;;;;5126536;28;20304;-53
2022/04/06 08:22:50;;;;;;;4.50;3.05;;;26.60;85.40;;;;;;5126967;28;20188;-50
2022/04/06 08:25:17;;;;;;;5.95;3.45;;;26.60;85.40;;;;;;5126143;28;20257;-51
2022/04/06 08:27:44;;;;;;;5.72;3.38;;;26.60;84.80;;;;;;5126585;28;20020;-52
2022/04/06 08:30:12;;;;;;;9.50;3.60;;;26.60;85.20;;;;;;5126488;28;20016;-53
2022/04/06 08:32:39;;;;;;;7.47;3.30;;;26.60;85.20;;;;;;5126339;28;20084;-47
2022/04/06 08:35:08;;;;;;;6.95;3.33;;;26.60;85.20;;;;;;5126164;28;20035;-48
2022/04/06 08:37:35;;;;;;;7.30;3.58;;;26.60;85.40;;;;;;5126335;28;20277;-52
2022/04/06 08:40:02;;;;;;;6.35;3.10;;;26.60;85.40;;;;;;5126240;28;20311;-52
2022/04/06 08:42:32;;;;;;;5.97;3.05;;;26.60;85.40;;;;;;5125850;28;20033;-52
2022/04/06 08:45:03;;;;;;;7.05;3.60;;;26.60;85.70;;;;;;5125951;28;20028;-54
2022/04/06 08:47:34;;;;;;;8.32;3.65;;;26.50;85.80;;;;;;5126017;28;20080;-51
2022/04/06 08:50:04;;;;;;;6.72;3.08;;;26.60;86.10;;;;;;5125452;28;20015;-49
2022/04/06 08:52:35;;;;;;;10.05;4.53;;;26.50;86.20;;;;;;5126004;28;20076;-50
2022/04/06 08:55:02;;;;;;;8.30;3.53;;;26.50;86.10;;;;;;5125875;28;20021;-50
2022/04/06 08:57:29;;;;;;;7.82;3.80;;;26.60;86.30;;;;;;5126047;28;20027;-49
2022/04/06 08:59:55;;;;;;;7.55;3.90;;;26.50;86.40;;;;;;5125514;28;20024;-49
2022/04/06 09:02:23;;;;;;;10.07;4.20;;;26.50;86.40;;;;;;5125856;28;20023;-56
2022/04/06 09:04:58;;;;;;;9.80;4.38;;;26.60;86.70;;;;;;5125486;28;20031;-53
2022/04/06 09:07:25;;;;;;;7.05;4.30;;;26.50;86.70;;;;;;5125611;28;20027;-51
2022/04/06 09:09:54;;;;;;;11.90;5.25;;;26.60;86.80;;;;;;5125489;28;20023;-53
2022/04/06 09:12:23;;;;;;;9.40;5.90;;;26.60;87.20;;;;;;5125594;28;20023;-54
2022/04/06 09:15:05;;;;;;;12.30;5.93;;;26.60;88.10;;;;;;5125259;28;20019;-48
2022/04/06 09:17:34;;;;;;;12.63;6.15;;;26.50;88.60;;;;;;5125531;28;20254;-47
2022/04/06 09:20:00;;;;;;;9.75;6.13;;;26.50;89.40;;;;;;5125252;28;20016;-49
2022/04/06 09:22:29;;;;;;;9.63;6.03;;;26.50;89.70;;;;;;5125598;28;20032;-53
2022/04/06 09:25:00;;;;;;;7.78;5.93;;;26.50;90.00;;;;;;5125161;28;20028;-49
2022/04/06 09:27:33;;;;;;;9.65;5.82;;;26.50;90.10;;;;;;5125060;28;20033;-56
2022/04/06 09:30:04;;;;;;;10.40;6.57;;;26.40;90.10;;;;;;5125392;28;20223;-53
2022/04/06 09:32:31;;;;;;;10.65;6.20;;;26.50;90.30;;;;;;5125128;28;20291;-53
2022/04/06 09:34:58;;;;;;;12.45;6.22;;;26.40;90.50;;;;;;5125018;28;20049;-50
2022/04/06 09:37:31;;;;;;;8.15;4.90;;;26.40;90.30;;;;;;5125186;28;20094;-47
2022/04/06 09:40:08;;;;;;;7.72;5.20;;;26.40;90.10;;;;;;5124786;28;20034;-49
2022/04/06 09:42:35;;;;;;;6.38;4.93;;;26.40;89.70;;;;;;5125328;28;20063;-54
2022/04/06 09:47:52;;;;;;;8.82;5.57;;;26.40;89.50;;;;;;5125184;28;20251;-52
2022/04/06 09:50:20;;;;;;;5.57;4.57;;;26.30;89.30;;;;;;5124621;28;20059;-54
2022/04/06 09:52:47;;;;;;;7.15;5.30;;;26.30;89.20;;;;;;5124898;28;20035;-52
2022/04/06 09:55:16;;;;;;;7.25;4.95;;;26.30;89.30;;;;;;5124641;28;20035;-51
2022/04/06 09:57:51;;;;;;;8.82;5.10;;;26.40;89.30;;;;;;5124898;28;20065;-57
2022/04/06 10:00:20;;;;;;;6.78;4.97;;;26.30;89.40;;;;;;5124600;28;20015;-55
2022/04/06 10:02:54;;;;;;;8.73;4.88;;;26.30;89.60;;;;;;5125014;28;20039;-51
2022/04/06 10:05:24;;;;;;;7.63;4.85;;;26.30;90.00;;;;;;5124312;28;20025;-50
2022/04/06 10:07:53;;;;;;;7.20;4.72;;;26.30;89.90;;;;;;5125187;28;20307;-50
2022/04/06 10:10:23;;;;;;;8.48;5.60;;;26.30;89.80;;;;;;5124509;28;20046;-52
2022/04/06 10:12:51;;;;;;;12.68;5.70;;;26.30;90.00;;;;;;5124909;28;20150;-51
2022/04/06 10:15:18;;;;;;;7.50;5.25;;;26.30;90.00;;;;;;5124400;28;20031;-52
2022/04/06 10:17:45;;;;;;;7.35;5.30;;;26.30;90.10;;;;;;5124715;28;20230;-52
2022/04/06 10:20:13;;;;;;;8.25;5.78;;;26.30;90.20;;;;;;5124393;28;20046;-52
2022/04/06 10:23:06;;;;;;;6.35;5.35;;;26.30;90.10;;;;;;5124905;28;20039;-54
2022/04/06 10:26:05;;;;;;;6.38;4.85;;;26.30;90.00;;;;;;5123808;28;20359;-58
2022/04/06 10:28:34;;;;;;;8.98;5.10;;;26.30;89.80;;;;;;5083621;28;20111;-49
2022/04/06 10:31:22;;;;;;;7.22;4.97;;;26.30;89.60;;;;;;5124226;28;20015;-51
2022/04/06 10:33:50;;;;;;;10.93;5.40;;;26.30;89.30;;;;;;5124079;28;20047;-47
2022/04/06 10:36:19;;;;;;;7.13;4.90;;;26.30;89.30;;;;;;5124112;28;20027;-53
2022/04/06 10:39:04;;;;;;;8.68;4.80;;;26.30;89.50;;;;;;5124110;28;20272;-54
2022/04/06 10:41:32;;;;;;;7.03;4.88;;;26.30;89.30;;;;;;5124066;28;20059;-58
2022/04/06 10:43:59;;;;;;;7.90;4.22;;;26.30;89.10;;;;;;5124001;28;20038;-53
2022/04/06 10:46:51;;;;;;;7.55;4.55;;;26.30;89.20;;;;;;5124001;28;20078;-53
2022/04/06 10:49:18;;;;;;;8.40;4.88;;;26.30;89.10;;;;;;5120079;28;20036;-52
2022/04/06 10:51:48;;;;;;;7.22;4.60;;;26.30;88.90;;;;;;5123891;28;20063;-48
2022/04/06 10:54:15;;;;;;;9.52;4.57;;;26.30;88.20;;;;;;5124372;28;20098;-51
2022/04/06 10:56:50;;;;;;;5.28;3.97;;;26.30;88.20;;;;;;5123906;28;20249;-49
2022/04/06 10:59:18;;;;;;;7.50;4.75;;;26.30;87.90;;;;;;5123871;28;20038;-56
2022/04/06 11:01:48;;;;;;;8.30;4.38;;;26.30;87.80;;;;;;5124091;28;20044;-52
2022/04/06 11:04:22;;;;;;;8.63;4.30;;;26.30;87.90;;;;;;5123800;28;20022;-54
2022/04/06 11:06:56;;;;;;;7.53;4.15;;;26.30;88.10;;;;;;5123997;28;20027;-56
2022/04/06 11:12:25;;;;;;;6.90;4.25;;;26.30;88.20;;;;;;5123966;28;20112;-55
2022/04/06 11:15:13;;;;;;;8.27;4.03;;;26.30;88.50;;;;;;5126444;28;20020;-53
2022/04/06 11:17:44;;;;;;;8.02;4.25;;;26.30;88.50;;;;;;5127913;28;20036;-52
2022/04/06 11:20:15;;;;;;;7.45;4.07;;;26.30;88.40;;;;;;5127915;28;20157;-53
2022/04/06 11:22:44;;;;;;;7.55;4.05;;;26.30;88.60;;;;;;5128000;28;20028;-52
2022/04/06 11:25:16;;;;;;;8.00;3.90;;;26.30;88.90;;;;;;5127511;28;20049;-52
2022/04/06 11:27:44;;;;;;;9.93;4.38;;;26.30;89.00;;;;;;5127903;28;20207;-52
2022/04/06 11:30:17;;;;;;;7.30;4.32;;;26.30;89.20;;;;;;5127453;28;20023;-54
2022/04/06 11:32:51;;;;;;;11.25;4.38;;;26.30;89.40;;;;;;5127667;28;20249;-48
2022/04/06 11:35:19;;;;;;;7.65;4.35;;;26.30;89.60;;;;;;5127326;28;20144;-53
2022/04/06 11:37:47;;;;;;;17.23;4.70;;;26.30;89.40;;;;;;5127462;28;20032;-52
2022/04/06 11:40:16;;;;;;;16.08;5.05;;;26.30;89.10;;;;;;5127287;28;20054;-48
2022/04/06 11:42:48;;;;;;;23.73;5.50;;;26.30;89.10;;;;;;5127586;28;20090;-52
2022/04/06 11:45:47;;;;;;;40.15;6.50;;;26.30;89.30;;;;;;5126966;28;20059;-52
2022/04/06 11:48:15;;;;;;;34.47;6.90;;;26.30;89.50;;;;;;5127553;28;20024;-54
2022/04/06 11:50:48;;;;;;;112.15;13.93;;;26.30;89.60;;;;;;5126852;28;20236;-49
2022/04/06 11:53:18;;;;;;;200.15;21.90;;;26.30;89.60;;;;;;5127429;28;20068;-52
2022/04/06 11:55:48;;;;;;;344.38;34.50;;;26.30;89.70;;;;;;5126808;28;20028;-50
2022/04/06 11:58:40;;;;;;;321.48;33.05;;;26.30;89.80;;;;;;5126921;28;20019;-52
2022/04/06 12:01:13;;;;;;;311.88;31.35;;;26.30;90.00;;;;;;5126725;28;20031;-58
2022/04/06 12:03:42;;;;;;;336.38;32.30;;;26.30;90.10;;;;;;5126671;28;20027;-50
2022/04/06 12:06:10;;;;;;;379.15;41.55;;;26.30;90.20;;;;;;5127101;28;20312;-49
2022/04/06 12:08:38;;;;;;;335.73;33.22;;;26.30;90.10;;;;;;5127305;28;20011;-51
2022/04/06 12:11:05;;;;;;;231.65;25.02;;;26.30;90.20;;;;;;5126741;28;20051;-55
2022/04/06 12:13:35;;;;;;;139.65;17.23;;;26.30;90.40;;;;;;5127076;28;20027;-54
2022/04/06 12:16:03;;;;;;;239.75;28.63;;;26.30;90.50;;;;;;5126631;28;20027;-55
2022/04/06 12:18:31;;;;;;;335.67;35.65;;;26.30;90.60;;;;;;5126966;28;20019;-49
2022/04/06 12:20:59;;;;;;;213.95;27.95;;;26.30;90.60;;;;;;5126434;28;20034;-52
2022/04/06 12:23:26;;;;;;;233.10;26.92;;;26.30;90.70;;;;;;5126802;28;20047;-49
2022/04/06 12:25:57;;;;;;;173.95;22.58;;;26.30;90.90;;;;;;5125376;28;20022;-51
2022/04/06 12:28:26;;;;;;;150.50;17.87;;;26.30;91.00;;;;;;5126681;28;20046;-54
2022/04/06 12:30:58;;;;;;;124.90;17.08;;;26.30;91.00;;;;;;5126709;28;20016;-57
2022/04/06 12:33:47;;;;;;;119.22;16.08;;;26.30;90.90;;;;;;5126866;28;20054;-52
2022/04/06 12:36:30;;;;;;;109.43;14.82;;;26.30;90.90;;;;;;5126169;28;20015;-52
2022/04/06 12:39:16;;;;;;;87.72;13.80;;;26.30;91.00;;;;;;5125891;28;20032;-53
2022/04/06 12:41:57;;;;;;;73.03;12.32;;;26.30;91.10;;;;;;5126079;28;20020;-50
2022/04/06 12:44:24;;;;;;;44.90;9.40;;;26.30;91.30;;;;;;5125924;28;20050;-57
2022/04/06 12:46:52;;;;;;;35.05;9.13;;;26.30;91.20;;;;;;5126060;28;20061;-55
2022/04/06 12:49:19;;;;;;;32.60;8.15;;;26.30;91.20;;;;;;5125845;28;20170;-54
2022/04/06 12:51:46;;;;;;;19.00;7.15;;;26.30;91.30;;;;;;5125985;28;20333;-50
2022/04/06 12:54:13;;;;;;;17.08;6.75;;;26.30;91.30;;;;;;5125826;28;20026;-51